createdAt,value
2022-11-18T00:02:26.106Z,9.40
2022-11-18T00:06:12.388Z,9.40
2022-11-18T00:09:54.146Z,9.40
2022-11-18T00:13:56.574Z,9.40
2022-11-18T00:17:38.434Z,9.40
2022-11-18T00:21:20.201Z,9.40
2022-11-18T00:25:02.014Z,9.40
2022-11-18T00:28:43.804Z,9.30
2022-11-18T00:32:25.580Z,9.30
2022-11-18T00:36:10.506Z,9.30
2022-11-18T00:39:52.271Z,9.30
2022-11-18T00:43:34.800Z,9.30
2022-11-18T00:47:16.755Z,9.30
2022-11-18T00:51:06.225Z,9.30
2022-11-18T00:54:47.967Z,9.30
2022-11-18T00:58:30.169Z,9.30
2022-11-18T01:02:11.887Z,9.30
2022-11-18T01:05:53.900Z,9.20
2022-11-18T01:09:35.707Z,9.20
2022-11-18T01:13:19.863Z,9.10
2022-11-18T01:17:01.634Z,9.20
2022-11-18T01:20:44.666Z,9.20
2022-11-18T01:24:26.435Z,9.10
2022-11-18T01:32:09.083Z,9.10
2022-11-18T01:35:50.324Z,9.10
2022-11-18T01:39:32.084Z,9.10
2022-11-18T01:43:16.015Z,9.10
2022-11-18T01:46:57.766Z,9.10
2022-11-18T01:50:44.754Z,9.00
2022-11-18T01:54:31.496Z,9.10
2022-11-18T01:58:20.562Z,9.10
2022-11-18T02:02:09.092Z,9.10
2022-11-18T02:05:53.916Z,9.10
2022-11-18T02:09:38.217Z,9.00
2022-11-18T02:13:20.270Z,9.10
2022-11-18T02:17:31.282Z,9.10
2022-11-18T02:21:28.598Z,9.10
2022-11-18T02:25:31.623Z,9.00
2022-11-18T02:29:20.494Z,9.00
2022-11-18T02:33:10.365Z,9.00
2022-11-18T02:36:59.399Z,9.00
2022-11-18T02:40:52.166Z,9.00
2022-11-18T02:44:36.858Z,8.90
2022-11-18T02:48:22.483Z,8.90
2022-11-18T02:52:06.183Z,9.00
2022-11-18T02:55:49.385Z,8.90
2022-11-18T02:59:31.703Z,8.90
2022-11-18T03:03:34.086Z,8.90
2022-11-18T03:07:30.413Z,8.90
2022-11-18T03:11:20.274Z,8.90
2022-11-18T03:15:17.119Z,8.90
2022-11-18T03:19:09.819Z,8.90
2022-11-18T03:23:10.053Z,8.90
2022-11-18T03:26:59.880Z,8.90
2022-11-18T03:31:15.707Z,8.80
2022-11-18T03:35:06.138Z,8.90
2022-11-18T03:38:51.390Z,8.80
2022-11-18T03:42:45.828Z,8.90
2022-11-18T03:46:37.986Z,8.80
2022-11-18T03:50:23.937Z,8.80
2022-11-18T03:54:23.910Z,8.80
2022-11-18T03:58:27.936Z,8.80
2022-11-18T04:02:35.771Z,8.80
2022-11-18T04:06:39.509Z,8.80
2022-11-18T04:10:34.989Z,8.80
2022-11-18T04:14:20.420Z,8.80
2022-11-18T04:18:02.274Z,8.80
2022-11-18T04:21:44.089Z,8.80
2022-11-18T04:25:26.146Z,8.80
2022-11-18T04:29:07.928Z,8.80
2022-11-18T04:32:49.719Z,8.80
2022-11-18T04:36:31.450Z,8.90
2022-11-18T04:40:13.287Z,8.80
2022-11-18T04:43:55.048Z,8.80
2022-11-18T04:47:37.280Z,8.80
2022-11-18T04:51:19.026Z,8.80
2022-11-18T04:55:00.748Z,8.80
2022-11-18T04:58:42.538Z,8.80
2022-11-18T05:02:24.295Z,8.80
2022-11-18T05:06:06.163Z,8.80
2022-11-18T05:09:48.366Z,8.70
2022-11-18T05:13:30.083Z,8.70
2022-11-18T05:17:12.190Z,8.70
2022-11-18T05:20:53.959Z,8.70
2022-11-18T05:24:35.773Z,8.70
2022-11-18T05:28:17.527Z,8.70
2022-11-18T05:31:59.450Z,8.60
2022-11-18T05:35:41.226Z,8.60
2022-11-18T05:39:23.130Z,8.60
2022-11-18T05:43:13.833Z,8.60
2022-11-18T05:46:55.552Z,8.60
2022-11-18T05:50:38.376Z,8.60
2022-11-18T05:54:21.688Z,8.60
2022-11-18T05:58:03.393Z,8.50
2022-11-18T06:01:50.444Z,8.50
2022-11-18T06:05:32.183Z,8.50
2022-11-18T06:09:17.994Z,8.40
2022-11-18T06:13:04.647Z,8.40
2022-11-18T06:16:52.216Z,8.40
2022-11-18T06:20:36.209Z,8.40
2022-11-18T06:24:18.414Z,8.30
2022-11-18T06:28:02.254Z,8.30
2022-11-18T06:31:43.956Z,8.30
2022-11-18T06:35:25.708Z,8.20
2022-11-18T06:39:08.205Z,8.20
2022-11-18T06:43:08.373Z,8.20
2022-11-18T06:46:56.086Z,8.20
2022-11-18T06:50:37.805Z,8.10
2022-11-18T06:54:19.770Z,8.10
2022-11-18T06:58:01.531Z,8.10
2022-11-18T07:01:43.328Z,8.00
2022-11-18T07:05:25.122Z,8.00
2022-11-18T07:09:07.464Z,8.00
2022-11-18T07:12:49.224Z,8.00
2022-11-18T07:16:30.994Z,7.90
2022-11-18T07:20:12.805Z,7.90
2022-11-18T07:23:55.890Z,7.80
2022-11-18T07:27:37.688Z,7.90
2022-11-18T07:31:20.625Z,7.90
2022-11-18T07:35:02.493Z,7.90
2022-11-18T07:38:44.286Z,7.90
2022-11-18T07:42:26.223Z,8.00
2022-11-18T07:46:34.382Z,8.10
2022-11-18T07:50:17.794Z,8.10
2022-11-18T07:53:59.538Z,8.20
2022-11-18T07:57:41.361Z,8.20
2022-11-18T08:01:25.336Z,8.10
2022-11-18T08:05:07.621Z,8.10
2022-11-18T08:08:49.871Z,8.10
2022-11-18T08:12:31.620Z,8.10
2022-11-18T08:16:24.786Z,8.10
2022-11-18T08:20:07.149Z,8.00
2022-11-18T08:23:54.226Z,8.00
2022-11-18T08:27:36.094Z,7.90
2022-11-18T08:31:20.233Z,7.90
2022-11-18T08:35:04.369Z,7.90
2022-11-18T08:42:49.080Z,7.90
2022-11-18T08:46:31.089Z,8.00
2022-11-18T08:50:13.077Z,8.10
2022-11-18T08:53:54.974Z,8.10
2022-11-18T08:57:36.725Z,8.30
2022-11-18T09:01:18.703Z,8.40
2022-11-18T09:05:00.478Z,8.60
2022-11-18T09:08:44.466Z,8.70
2022-11-18T09:12:26.309Z,8.80
2022-11-18T09:16:08.715Z,8.90
2022-11-18T09:19:50.435Z,9.00
2022-11-18T09:23:34.105Z,9.00
2022-11-18T09:27:17.582Z,9.00
2022-11-18T09:31:18.927Z,9.10
2022-11-18T09:35:00.660Z,9.20
2022-11-18T09:38:42.690Z,9.30
2022-11-18T09:42:50.845Z,9.40
2022-11-18T09:47:00.126Z,9.50
2022-11-18T09:50:49.524Z,9.60
2022-11-18T09:54:36.240Z,9.70
2022-11-18T09:58:35.859Z,9.70
2022-11-18T10:02:39.095Z,9.80
2022-11-18T10:06:29.951Z,9.80
2022-11-18T10:10:19.441Z,9.80
2022-11-18T10:14:01.559Z,9.80
2022-11-18T10:17:51.465Z,9.80
2022-11-18T10:21:48.526Z,9.80
2022-11-18T10:25:30.337Z,9.90
2022-11-18T10:29:12.458Z,9.90
2022-11-18T10:33:16.151Z,9.90
2022-11-18T10:37:21.365Z,10.00
2022-11-18T10:41:08.505Z,10.10
2022-11-18T10:44:50.304Z,10.20
2022-11-18T10:48:32.062Z,10.20
2022-11-18T10:52:14.857Z,10.30
2022-11-18T10:56:05.011Z,10.40
2022-11-18T10:59:55.106Z,10.50
2022-11-18T11:03:40.800Z,10.70
2022-11-18T11:07:32.146Z,10.80
2022-11-18T11:11:26.439Z,10.90
2022-11-18T11:15:16.611Z,11.10
2022-11-18T11:19:02.482Z,11.30
2022-11-18T11:22:45.577Z,11.40
2022-11-18T11:31:18.048Z,11.80
2022-11-18T11:35:14.720Z,12.10
2022-11-18T11:39:04.623Z,12.30
2022-11-18T11:42:49.585Z,12.70
2022-11-18T11:46:44.573Z,12.90
2022-11-18T11:51:01.626Z,12.90
2022-11-18T11:55:37.484Z,13.10
2022-11-18T11:59:45.556Z,13.40
2022-11-18T12:03:52.220Z,13.50
2022-11-18T12:07:44.029Z,13.40
2022-11-18T12:11:47.101Z,13.20
2022-11-18T12:15:37.504Z,13.10
2022-11-18T12:19:21.643Z,13.10
2022-11-18T12:23:19.885Z,12.90
2022-11-18T12:27:30.396Z,12.70
2022-11-18T12:31:18.365Z,12.50
2022-11-18T12:35:05.401Z,12.40
2022-11-18T12:38:47.214Z,12.40
2022-11-18T12:43:02.679Z,12.30
2022-11-18T12:46:48.963Z,12.30
2022-11-18T12:50:50.804Z,12.20
2022-11-18T12:54:41.253Z,12.30
2022-11-18T12:58:25.293Z,12.20
2022-11-18T13:02:19.212Z,12.20
2022-11-18T13:06:30.219Z,12.10
2022-11-18T13:10:24.913Z,12.10
2022-11-18T13:14:32.208Z,12.10
2022-11-18T13:18:18.349Z,12.10
2022-11-18T13:22:20.478Z,12.10
2022-11-18T13:26:13.971Z,12.10
2022-11-18T13:30:03.417Z,12.10
2022-11-18T13:33:45.164Z,12.30
2022-11-18T13:37:29.886Z,12.40
2022-11-18T13:41:24.181Z,12.60
2022-11-18T13:45:07.320Z,12.60
2022-11-18T13:48:59.115Z,12.60
2022-11-18T13:52:56.361Z,12.60
2022-11-18T13:56:40.271Z,12.60
2022-11-18T14:00:25.817Z,12.70
2022-11-18T14:04:22.193Z,12.70
2022-11-18T14:08:20.266Z,12.80
2022-11-18T14:12:28.702Z,12.60
2022-11-18T14:16:19.204Z,12.40
2022-11-18T14:20:08.778Z,12.30
2022-11-18T14:23:50.561Z,12.10
2022-11-18T14:27:41.012Z,12.00
2022-11-18T14:31:26.062Z,11.90
2022-11-18T14:35:10.879Z,11.90
2022-11-18T14:42:54.812Z,11.80
2022-11-18T14:46:38.127Z,11.70
2022-11-18T14:50:19.843Z,11.70
2022-11-18T14:54:01.524Z,11.60
2022-11-18T14:57:43.364Z,11.60
2022-11-18T15:01:29.339Z,11.60
2022-11-18T15:05:12.431Z,11.50
2022-11-18T15:08:54.550Z,11.50
2022-11-18T15:12:36.301Z,11.40
2022-11-18T15:16:23.984Z,11.40
2022-11-18T15:20:07.001Z,11.40
2022-11-18T15:23:48.809Z,11.40
2022-11-18T15:27:30.630Z,11.40
2022-11-18T15:31:12.475Z,11.40
2022-11-18T15:34:54.176Z,11.30
2022-11-18T15:38:36.248Z,11.30
2022-11-18T15:42:23.130Z,11.10
2022-11-18T15:46:05.442Z,11.10
2022-11-18T15:49:47.217Z,10.90
2022-11-18T15:53:29.247Z,10.90
2022-11-18T15:57:10.940Z,10.80
2022-11-18T16:00:52.760Z,10.80
2022-11-18T16:04:34.544Z,10.60
2022-11-18T16:08:16.228Z,10.50
2022-11-18T16:12:16.796Z,10.40
2022-11-18T16:15:58.536Z,10.30
2022-11-18T16:19:40.225Z,10.20
2022-11-18T16:23:21.946Z,10.20
2022-11-18T16:27:04.646Z,10.10
2022-11-18T16:31:09.417Z,10.00
2022-11-18T16:34:53.200Z,9.90
2022-11-18T16:38:38.261Z,9.90
2022-11-18T16:42:19.949Z,9.80
2022-11-18T16:46:01.673Z,9.70
2022-11-18T16:49:44.075Z,9.60
2022-11-18T16:53:25.861Z,9.50
2022-11-18T16:57:08.582Z,9.50
2022-11-18T17:01:17.186Z,9.40
2022-11-18T17:04:52.015Z,9.40
2022-11-18T17:08:35.131Z,9.30
2022-11-18T17:12:16.815Z,9.30
2022-11-18T17:15:58.561Z,9.30
2022-11-18T17:19:40.249Z,9.20
2022-11-18T17:23:21.974Z,9.10
2022-11-18T17:27:03.819Z,9.10
2022-11-18T17:30:49.859Z,9.00
2022-11-18T17:34:31.901Z,9.00
2022-11-18T17:38:13.651Z,8.90
2022-11-18T17:42:13.909Z,8.90
2022-11-18T17:45:57.721Z,8.90
2022-11-18T17:49:39.500Z,8.80
2022-11-18T17:53:21.534Z,8.80
2022-11-18T17:57:03.292Z,8.70
2022-11-18T18:00:45.053Z,8.70
2022-11-18T18:04:27.142Z,8.70
2022-11-18T18:08:09.968Z,8.60
2022-11-18T18:11:51.702Z,8.60
2022-11-18T18:15:34.146Z,8.60
2022-11-18T18:19:17.903Z,8.50
2022-11-18T18:22:59.720Z,8.40
2022-11-18T18:26:41.905Z,8.40
2022-11-18T18:30:23.596Z,8.40
2022-11-18T18:34:05.503Z,8.30
2022-11-18T18:37:47.241Z,8.30
2022-11-18T18:41:29.318Z,8.30
2022-11-18T18:45:29.572Z,8.20
2022-11-18T18:49:16.139Z,8.20
2022-11-18T18:52:57.818Z,8.10
2022-11-18T18:56:39.848Z,8.10
2022-11-18T19:00:21.566Z,8.10
2022-11-18T19:04:05.492Z,8.10
2022-11-18T19:07:47.317Z,8.00
2022-11-18T19:11:48.011Z,8.00
2022-11-18T19:15:30.057Z,7.90
2022-11-18T19:19:18.497Z,7.90
2022-11-18T19:23:10.289Z,7.90
2022-11-18T19:26:52.543Z,7.80
2022-11-18T19:30:34.280Z,7.80
2022-11-18T19:34:16.491Z,7.80
2022-11-18T19:37:58.382Z,7.70
2022-11-18T19:41:40.225Z,7.70
2022-11-18T19:45:21.915Z,7.60
2022-11-18T19:49:03.617Z,7.60
2022-11-18T19:52:47.956Z,7.60
2022-11-18T19:56:29.759Z,7.60
2022-11-18T20:00:12.024Z,7.50
2022-11-18T20:03:56.018Z,7.60
2022-11-18T20:07:37.968Z,7.50
2022-11-18T20:11:20.879Z,7.50
2022-11-18T20:15:02.587Z,7.40
2022-11-18T20:18:47.532Z,7.40
2022-11-18T20:22:29.269Z,7.40
2022-11-18T20:26:13.186Z,7.40
2022-11-18T20:29:55.795Z,7.40
2022-11-18T20:33:40.555Z,7.30
2022-11-18T20:37:27.774Z,7.30
2022-11-18T20:41:11.726Z,7.30
2022-11-18T20:44:53.431Z,7.30
2022-11-18T20:48:35.811Z,7.30
2022-11-18T20:52:17.487Z,7.20
2022-11-18T20:55:59.161Z,7.20
2022-11-18T20:59:40.940Z,7.10
2022-11-18T21:03:22.725Z,7.10
2022-11-18T21:07:04.524Z,7.10
2022-11-18T21:10:46.285Z,7.00
2022-11-18T21:14:28.392Z,7.10
2022-11-18T21:18:10.267Z,7.00
2022-11-18T21:21:52.775Z,7.00
2022-11-18T21:25:34.560Z,7.00
2022-11-18T21:29:17.890Z,7.00
2022-11-18T21:32:59.845Z,7.10
2022-11-18T21:36:45.885Z,7.00
2022-11-18T21:40:29.942Z,7.00
2022-11-18T21:44:13.613Z,7.10
2022-11-18T21:47:55.610Z,7.00
2022-11-18T21:51:37.448Z,7.00
2022-11-18T21:55:19.189Z,7.00
2022-11-18T21:59:01.897Z,7.00
2022-11-18T22:02:43.611Z,7.00
2022-11-18T22:06:29.673Z,7.00
2022-11-18T22:10:11.463Z,7.00
2022-11-18T22:13:53.766Z,6.90
2022-11-18T22:17:35.485Z,6.90
2022-11-18T22:21:21.733Z,6.90
2022-11-18T22:25:03.580Z,6.90
2022-11-18T22:28:46.326Z,6.90
2022-11-18T22:32:28.021Z,6.80
2022-11-18T22:36:15.757Z,6.80
2022-11-18T22:39:57.471Z,6.80
2022-11-18T22:43:39.195Z,6.80
2022-11-18T22:47:20.883Z,6.80
2022-11-18T22:51:05.173Z,6.80
2022-11-18T22:54:46.855Z,6.70
2022-11-18T22:58:29.208Z,6.70
2022-11-18T23:02:11.009Z,6.70
2022-11-18T23:05:52.702Z,6.70
2022-11-18T23:09:34.480Z,6.70
2022-11-18T23:13:35.270Z,6.70
2022-11-18T23:17:17.079Z,6.70
2022-11-18T23:21:01.874Z,6.70
2022-11-18T23:24:43.888Z,6.70
2022-11-18T23:28:25.665Z,6.60
2022-11-18T23:32:07.425Z,6.60
2022-11-18T23:35:57.916Z,6.60
2022-11-18T23:39:39.616Z,6.60
2022-11-18T23:43:21.438Z,6.60
2022-11-18T23:47:03.150Z,6.60
2022-11-18T23:50:59.244Z,6.60
2022-11-18T23:54:41.011Z,6.50
2022-11-18T23:58:22.753Z,6.50
